sensor_id;sensor_type;location;lat;lon;timestamp;temperature;humidity
43414;DHT22;73638;49.676;8.606;2024-01-07T00:00:26;7.6589;73.3501
43414;DHT22;73638;49.676;8.606;2024-01-07T00:05:35;7.7363;73.1044
43414;DHT22;73638;49.676;8.606;2024-01-07T00:10:40;7.7096;73.1777
43414;DHT22;73638;49.676;8.606;2024-01-07T00:15:46;7.6669;73.2021
43414;DHT22;73638;49.676;8.606;2024-01-07T00:20:53;7.731;73.2021
43414;DHT22;73638;49.676;8.606;2024-01-07T00:25:59;7.8965;72.6986
43414;DHT22;73638;49.676;8.606;2024-01-07T00:31:06;7.7657;72.4529
43414;DHT22;73638;49.676;8.606;2024-01-07T00:36:13;7.7363;72.8344
43414;DHT22;73638;49.676;8.606;2024-01-07T00:41:19;7.6883;72.4163
43414;DHT22;73638;49.676;8.606;2024-01-07T00:46:26;7.6108;72.5017
43414;DHT22;73638;49.676;8.606;2024-01-07T00:51:33;7.7844;72.5261
43414;DHT22;73638;49.676;8.606;2024-01-07T00:56:39;7.6402;72.8222
43414;DHT22;73638;49.676;8.606;2024-01-07T01:01:46;7.7016;72.8466
43414;DHT22;73638;49.676;8.606;2024-01-07T01:06:53;7.6802;72.6375
43414;DHT22;73638;49.676;8.606;2024-01-07T01:11:59;7.5841;72.4041
43414;DHT22;73638;49.676;8.606;2024-01-07T01:17:06;7.6322;72.7855
43414;DHT22;73638;49.676;8.606;2024-01-07T01:22:12;7.6322;72.871
43414;DHT22;73638;49.676;8.606;2024-01-07T01:27:19;7.528;72.7474
43414;DHT22;73638;49.676;8.606;2024-01-07T01:32:26;7.5334;72.7108
43414;DHT22;73638;49.676;8.606;2024-01-07T01:37:33;7.4159;73.0312
43414;DHT22;73638;49.676;8.606;2024-01-07T01:42:42;7.5494;72.9442
43414;DHT22;73638;49.676;8.606;2024-01-07T01:47:47;7.5841;72.6986
43414;DHT22;73638;49.676;8.606;2024-01-07T01:52:53;7.6188;72.7855
43414;DHT22;73638;49.676;8.606;2024-01-07T01:58:00;7.723;72.6863
43414;DHT22;73638;49.676;8.606;2024-01-07T02:03:06;7.6028;72.6009
43414;DHT22;73638;49.676;8.606;2024-01-07T02:08:13;7.6188;72.7596
43414;DHT22;73638;49.676;8.606;2024-01-07T02:13:19;7.8351;72.4407
43414;DHT22;73638;49.676;8.606;2024-01-07T02:18:26;7.8405;72.871
43414;DHT22;73638;49.676;8.606;2024-01-07T02:23:33;7.5841;73.3623
43414;DHT22;73638;49.676;8.606;2024-01-07T02:28:39;7.3945;73.8903
43414;DHT22;73638;49.676;8.606;2024-01-07T02:33:46;7.3865;73.9025
43414;DHT22;73638;49.676;8.606;2024-01-07T02:38:52;7.2263;74.0505
43414;DHT22;73638;49.676;8.606;2024-01-07T02:43:59;7.2957;74.0871
43414;DHT22;73638;49.676;8.606;2024-01-07T02:49:06;7.5975;73.6202
43414;DHT22;73638;49.676;8.606;2024-01-07T02:54:13;7.4025;73.3257
43414;DHT22;73638;49.676;8.606;2024-01-07T02:59:19;7.3598;73.1777
43414;DHT22;73638;49.676;8.606;2024-01-07T03:04:26;7.3171;73.1167
43414;DHT22;73638;49.676;8.606;2024-01-07T03:09:33;7.2824;73.0556
43414;DHT22;73638;49.676;8.606;2024-01-07T03:14:40;7.3678;72.932
43414;DHT22;73638;49.676;8.606;2024-01-07T03:19:46;7.4159;72.8344
43414;DHT22;73638;49.676;8.606;2024-01-07T03:24:52;7.2957;72.8099
43414;DHT22;73638;49.676;8.606;2024-01-07T03:29:59;7.4639;72.6253
43414;DHT22;73638;49.676;8.606;2024-01-07T03:35:06;7.3171;72.5139
43414;DHT22;73638;49.676;8.606;2024-01-07T03:40:12;7.2904;72.3919
43414;DHT22;73638;49.676;8.606;2024-01-07T03:45:18;7.1489;72.3919
43414;DHT22;73638;49.676;8.606;2024-01-07T03:50:25;7.2396;72.5261
43414;DHT22;73638;49.676;8.606;2024-01-07T03:55:32;6.8845;73.0434
43414;DHT22;73638;49.676;8.606;2024-01-07T04:00:39;7.01;73.0556
43414;DHT22;73638;49.676;8.606;2024-01-07T04:05:46;7.0874;72.5261
43414;DHT22;73638;49.676;8.606;2024-01-07T04:10:52;7.018;72.723
43414;DHT22;73638;49.676;8.606;2024-01-07T04:15:59;6.9539;72.8099
43414;DHT22;73638;49.676;8.606;2024-01-07T04:21:08;6.9059;72.6009
43414;DHT22;73638;49.676;8.606;2024-01-07T04:26:12;7.0047;72.7977
43414;DHT22;73638;49.676;8.606;2024-01-07T04:31:18;6.9059;72.9809
43414;DHT22;73638;49.676;8.606;2024-01-07T04:36:25;7.0233;72.8832
43414;DHT22;73638;49.676;8.606;2024-01-07T04:41:32;6.7323;73.7011
43414;DHT22;73638;49.676;8.606;2024-01-07T04:46:39;6.9833;73.1411
43414;DHT22;73638;49.676;8.606;2024-01-07T04:51:45;6.9486;73.2647
43414;DHT22;73638;49.676;8.606;2024-01-07T04:56:51;6.9539;73.0312
43414;DHT22;73638;49.676;8.606;2024-01-07T05:01:58;6.8711;73.3013
43414;DHT22;73638;49.676;8.606;2024-01-07T05:07:10;6.8071;74.107
43414;DHT22;73638;49.676;8.606;2024-01-07T05:12:11;6.6602;74.5739
43414;DHT22;73638;49.676;8.606;2024-01-07T05:17:18;6.6335;74.1558
43414;DHT22;73638;49.676;8.606;2024-01-07T05:22:25;6.7803;74.0948
43414;DHT22;73638;49.676;8.606;2024-01-07T05:27:32;6.9486;73.817
43414;DHT22;73638;49.676;8.606;2024-01-07T05:32:38;6.8978;74.1115
43414;DHT22;73638;49.676;8.606;2024-01-07T05:37:45;6.7723;74.0459
43414;DHT22;73638;49.676;8.606;2024-01-07T05:42:52;6.7456;74.3404
43414;DHT22;73638;49.676;8.606;2024-01-07T05:47:58;6.767;74.4625
43414;DHT22;73638;49.676;8.606;2024-01-07T05:53:05;6.7243;74.0948
43414;DHT22;73638;49.676;8.606;2024-01-07T05:58:12;6.759;74.1314
43414;DHT22;73638;49.676;8.606;2024-01-07T06:03:18;6.9966;73.7804
43414;DHT22;73638;49.676;8.606;2024-01-07T06:08:25;6.8364;74.0505
43414;DHT22;73638;49.676;8.606;2024-01-07T06:13:32;6.8925;73.817
43414;DHT22;73638;49.676;8.606;2024-01-07T06:18:39;6.8578;73.9147
43414;DHT22;73638;49.676;8.606;2024-01-07T06:23:45;7.1569;73.7194
43414;DHT22;73638;49.676;8.606;2024-01-07T06:28:54;7.0527;73.5958
43414;DHT22;73638;49.676;8.606;2024-01-07T06:34:01;7.1996;73.6324
43414;DHT22;73638;49.676;8.606;2024-01-07T06:39:08;7.0581;73.5714
43414;DHT22;73638;49.676;8.606;2024-01-07T06:44:14;7.1221;73.5348
43414;DHT22;73638;49.676;8.606;2024-01-07T06:49:21;7.0047;73.3013
43414;DHT22;73638;49.676;8.606;2024-01-07T06:54:28;7.1782;73.0556
43414;DHT22;73638;49.676;8.606;2024-01-07T06:59:34;7.1782;73.0678
43414;DHT22;73638;49.676;8.606;2024-01-07T07:04:41;7.1355;73.0922
43414;DHT22;73638;49.676;8.606;2024-01-07T07:09:48;7.1702;72.9686
43414;DHT22;73638;49.676;8.606;2024-01-07T07:14:55;7.1302;72.7474
43414;DHT22;73638;49.676;8.606;2024-01-07T07:20:02;7.1702;72.5261
43414;DHT22;73638;49.676;8.606;2024-01-07T07:25:08;7.1435;72.5139
43414;DHT22;73638;49.676;8.606;2024-01-07T07:30:15;7.3598;72.2194
43414;DHT22;73638;49.676;8.606;2024-01-07T07:35:21;7.4639;71.838
43414;DHT22;73638;49.676;8.606;2024-01-07T07:40:28;7.4506;70.7454
43414;DHT22;73638;49.676;8.606;2024-01-07T07:45:35;7.4372;70.4128
43414;DHT22;73638;49.676;8.606;2024-01-07T07:50:42;7.5067;70.3151
43414;DHT22;73638;49.676;8.606;2024-01-07T07:55:48;7.4212;69.688
43414;DHT22;73638;49.676;8.606;2024-01-07T08:00:55;7.5334;69.8604
43414;DHT22;73638;49.676;8.606;2024-01-07T08:06:02;7.472;69.2958
43414;DHT22;73638;49.676;8.606;2024-01-07T08:11:08;7.4933;69.2454
43414;DHT22;73638;49.676;8.606;2024-01-07T08:16:15;7.3465;68.7175
43414;DHT22;73638;49.676;8.606;2024-01-07T08:21:22;7.4025;68.4596
43414;DHT22;73638;49.676;8.606;2024-01-07T08:26:30;7.4212;68.9998
43414;DHT22;73638;49.676;8.606;2024-01-07T08:31:37;7.3598;68.0293
43414;DHT22;73638;49.676;8.606;2024-01-07T08:36:43;7.1355;67.9072
43414;DHT22;73638;49.676;8.606;2024-01-07T08:41:50;7.1862;67.4525
43414;DHT22;73638;49.676;8.606;2024-01-07T08:46:57;7.1088;67.3899
43414;DHT22;73638;49.676;8.606;2024-01-07T08:52:04;7.2477;67.4525
43414;DHT22;73638;49.676;8.606;2024-01-07T08:57:10;7.3518;67.3655
43414;DHT22;73638;49.676;8.606;2024-01-07T09:02:17;7.528;67.4403
43414;DHT22;73638;49.676;8.606;2024-01-07T09:07:23;7.4079;66.4942
43414;DHT22;73638;49.676;8.606;2024-01-07T09:12:30;7.4773;66.7521
43414;DHT22;73638;49.676;8.606;2024-01-07T09:17:37;7.5334;66.0517
43414;DHT22;73638;49.676;8.606;2024-01-07T09:22:44;7.3037;65.7313
43414;DHT22;73638;49.676;8.606;2024-01-07T09:27:50;7.3518;65.9281
43414;DHT22;73638;49.676;8.606;2024-01-07T09:32:57;7.3812;65.5344
43414;DHT22;73638;49.676;8.606;2024-01-07T09:38:04;7.4506;65.5726
43414;DHT22;73638;49.676;8.606;2024-01-07T09:43:10;7.3598;65.0935
43414;DHT22;73638;49.676;8.606;2024-01-07T09:48:17;7.4292;65.2155
43414;DHT22;73638;49.676;8.606;2024-01-07T09:53:25;7.3518;64.184
43414;DHT22;73638;49.676;8.606;2024-01-07T09:58:30;7.3171;63.975
43414;DHT22;73638;49.676;8.606;2024-01-07T10:03:37;7.2557;63.6423
43414;DHT22;73638;49.676;8.606;2024-01-07T10:08:43;7.3304;63.6423
43414;DHT22;73638;49.676;8.606;2024-01-07T10:13:50;7.3598;63.3844
43414;DHT22;73638;49.676;8.606;2024-01-07T10:18:57;7.4292;62.7588
43414;DHT22;73638;49.676;8.606;2024-01-07T10:24:07;7.3732;62.6352
43414;DHT22;73638;49.676;8.606;2024-01-07T10:29:10;7.269;62.4872
43414;DHT22;73638;49.676;8.606;2024-01-07T10:34:17;7.2343;62.5498
43414;DHT22;73638;49.676;8.606;2024-01-07T10:39:23;7.5334;61.7014
43414;DHT22;73638;49.676;8.606;2024-01-07T10:44:32;7.4933;62.475
43414;DHT22;73638;49.676;8.606;2024-01-07T10:49:39;7.269;61.7746
43414;DHT22;73638;49.676;8.606;2024-01-07T10:54:44;7.4159;60.9155
43414;DHT22;73638;49.676;8.606;2024-01-07T10:59:50;7.1221;61.1856
43414;DHT22;73638;49.676;8.606;2024-01-07T11:05:00;7.0954;61.3443
43414;DHT22;73638;49.676;8.606;2024-01-07T11:10:08;6.9673;60.9766
43414;DHT22;73638;49.676;8.606;2024-01-07T11:15:09;6.8631;61.3199
43414;DHT22;73638;49.676;8.606;2024-01-07T11:20:21;6.9059;61.2467
43414;DHT22;73638;49.676;8.606;2024-01-07T11:25:29;7.018;61.4557
43414;DHT22;73638;49.676;8.606;2024-01-07T11:30:38;7.0874;61.1978
43414;DHT22;73638;49.676;8.606;2024-01-07T11:36:08;7.0874;59.8215
43414;DHT22;73638;49.676;8.606;2024-01-07T11:40:43;7.1489;60.177
43414;DHT22;73638;49.676;8.606;2024-01-07T11:45:50;7.0741;60.4105
43414;DHT22;73638;49.676;8.606;2024-01-07T11:50:57;6.8498;60.4105
43414;DHT22;73638;49.676;8.606;2024-01-07T11:56:03;7.0581;60.853
43414;DHT22;73638;49.676;8.606;2024-01-07T12:01:10;6.9966;60.5341
43414;DHT22;73638;49.676;8.606;2024-01-07T12:06:17;6.6121;60.1358
43414;DHT22;73638;49.676;8.606;2024-01-07T12:11:23;6.8925;59.7101
43414;DHT22;73638;49.676;8.606;2024-01-07T12:16:30;6.9406;59.8215
43414;DHT22;73638;49.676;8.606;2024-01-07T12:21:37;6.8017;59.8154
43414;DHT22;73638;49.676;8.606;2024-01-07T12:26:43;6.4439;59.7543
43414;DHT22;73638;49.676;8.606;2024-01-07T12:31:55;6.6201;60.3571
43414;DHT22;73638;49.676;8.606;2024-01-07T12:36:57;6.6949;60.5661
43414;DHT22;73638;49.676;8.606;2024-01-07T12:42:03;6.751;59.4598
43414;DHT22;73638;49.676;8.606;2024-01-07T12:47:10;6.5507;59.3118
43414;DHT22;73638;49.676;8.606;2024-01-07T12:52:16;6.6335;59.7299
43414;DHT22;73638;49.676;8.606;2024-01-07T12:57:25;6.4519;58.8815
43414;DHT22;73638;49.676;8.606;2024-01-07T13:02:29;6.3745;59.1531
43414;DHT22;73638;49.676;8.606;2024-01-07T13:07:36;6.297;59.4598
43414;DHT22;73638;49.676;8.606;2024-01-07T13:12:50;6.2783;59.4232
43414;DHT22;73638;49.676;8.606;2024-01-07T13:17:49;6.1368;58.648
43414;DHT22;73638;49.676;8.606;2024-01-07T13:22:56;5.9419;59.2264
43414;DHT22;73638;49.676;8.606;2024-01-07T13:28:03;6.0407;58.8083
43414;DHT22;73638;49.676;8.606;2024-01-07T13:33:10;6.0193;58.8205
43414;DHT22;73638;49.676;8.606;2024-01-07T13:38:16;6.0807;58.6862
43414;DHT22;73638;49.676;8.606;2024-01-07T13:43:23;6.0754;58.8952
43414;DHT22;73638;49.676;8.606;2024-01-07T13:48:29;6.1448;58.8449
43414;DHT22;73638;49.676;8.606;2024-01-07T13:53:36;6.249;58.3169
43414;DHT22;73638;49.676;8.606;2024-01-07T13:58:46;6.006;58.1567
43414;DHT22;73638;49.676;8.606;2024-01-07T14:03:50;5.8724;58.1445
43414;DHT22;73638;49.676;8.606;2024-01-07T14:08:56;5.795;58.0591
43414;DHT22;73638;49.676;8.606;2024-01-07T14:14:03;5.6615;58.4283
43414;DHT22;73638;49.676;8.606;2024-01-07T14:19:10;5.7736;58.4405
43414;DHT22;73638;49.676;8.606;2024-01-07T14:24:16;5.9152;58.2315
43414;DHT22;73638;49.676;8.606;2024-01-07T14:29:23;5.7523;58.378
43414;DHT22;73638;49.676;8.606;2024-01-07T14:34:30;5.5306;58.5138
43414;DHT22;73638;49.676;8.606;2024-01-07T14:39:37;5.795;58.4146
43414;DHT22;73638;49.676;8.606;2024-01-07T14:44:51;5.5787;58.0224
43414;DHT22;73638;49.676;8.606;2024-01-07T14:49:50;5.293;58.1338
43414;DHT22;73638;49.676;8.606;2024-01-07T14:54:56;5.4318;58.5275
43414;DHT22;73638;49.676;8.606;2024-01-07T15:00:04;5.5573;57.7401
43414;DHT22;73638;49.676;8.606;2024-01-07T15:05:10;5.4746;56.4736
43414;DHT22;73638;49.676;8.606;2024-01-07T15:10:17;5.2422;56.7453
43414;DHT22;73638;49.676;8.606;2024-01-07T15:15:23;5.4585;57.1267
43414;DHT22;73638;49.676;8.606;2024-01-07T15:20:30;5.293;56.5972
43414;DHT22;73638;49.676;8.606;2024-01-07T15:25:36;5.1808;56.1181
43414;DHT22;73638;49.676;8.606;2024-01-07T15:30:43;5.1514;55.2453
43414;DHT22;73638;49.676;8.606;2024-01-07T15:35:49;4.9645;55.111
43414;DHT22;73638;49.676;8.606;2024-01-07T15:40:56;4.8604;54.9264
43414;DHT22;73638;49.676;8.606;2024-01-07T15:46:03;4.8177;55.2209
43414;DHT22;73638;49.676;8.606;2024-01-07T15:51:09;4.7536;54.963
43414;DHT22;73638;49.676;8.606;2024-01-07T15:56:15;4.9084;55.3445
43414;DHT22;73638;49.676;8.606;2024-01-07T16:01:22;4.8791;54.7921
43414;DHT22;73638;49.676;8.606;2024-01-07T16:06:28;4.5666;54.0169
43414;DHT22;73638;49.676;8.606;2024-01-07T16:11:35;4.4598;54.8287
43414;DHT22;73638;49.676;8.606;2024-01-07T16:16:42;4.6227;54.3862
43414;DHT22;73638;49.676;8.606;2024-01-07T16:21:48;4.3503;54.4472
43414;DHT22;73638;49.676;8.606;2024-01-07T16:26:55;4.4892;53.8445
43414;DHT22;73638;49.676;8.606;2024-01-07T16:32:01;4.1688;53.6858
43414;DHT22;73638;49.676;8.606;2024-01-07T16:37:08;3.9525;52.9259
43414;DHT22;73638;49.676;8.606;2024-01-07T16:42:14;4.0833;53.3928
43414;DHT22;73638;49.676;8.606;2024-01-07T16:47:23;3.7896;52.7413
43414;DHT22;73638;49.676;8.606;2024-01-07T16:52:30;3.6507;53.5164
43414;DHT22;73638;49.676;8.606;2024-01-07T16:57:36;3.4771;53.8232
43414;DHT22;73638;49.676;8.606;2024-01-07T17:02:42;3.7549;54.4747
43414;DHT22;73638;49.676;8.606;2024-01-07T17:07:49;3.5172;53.7865
43414;DHT22;73638;49.676;8.606;2024-01-07T17:12:55;3.4131;54.2657
43414;DHT22;73638;49.676;8.606;2024-01-07T17:18:03;3.4478;54.4991
43414;DHT22;73638;49.676;8.606;2024-01-07T17:23:09;3.2528;54.4991
43414;DHT22;73638;49.676;8.606;2024-01-07T17:28:15;3.4211;54.3877
43414;DHT22;73638;49.676;8.606;2024-01-07T17:33:22;3.2395;53.9834
43414;DHT22;73638;49.676;8.606;2024-01-07T17:38:28;3.3223;54.1909
43414;DHT22;73638;49.676;8.606;2024-01-07T17:43:34;3.0072;54.0444
43414;DHT22;73638;49.676;8.606;2024-01-07T17:48:41;3.4424;54.0566
43414;DHT22;73638;49.676;8.606;2024-01-07T17:53:47;3.1834;53.8598
43414;DHT22;73638;49.676;8.606;2024-01-07T17:58:54;3.0633;54.1299
43414;DHT22;73638;49.676;8.606;2024-01-07T18:04:00;3.3864;54.4244
43414;DHT22;73638;49.676;8.606;2024-01-07T18:09:06;3.154;54.5113
43414;DHT22;73638;49.676;8.606;2024-01-07T18:14:12;2.9671;53.8964
43414;DHT22;73638;49.676;8.606;2024-01-07T18:19:19;2.8683;54.5724
43414;DHT22;73638;49.676;8.606;2024-01-07T18:24:25;3.2101;54.7326
43414;DHT22;73638;49.676;8.606;2024-01-07T18:29:32;3.3009;54.0688
43414;DHT22;73638;49.676;8.606;2024-01-07T18:34:38;3.1754;53.2082
43414;DHT22;73638;49.676;8.606;2024-01-07T18:39:45;3.2181;52.8649
43414;DHT22;73638;49.676;8.606;2024-01-07T18:44:51;3.1407;53.2708
43414;DHT22;73638;49.676;8.606;2024-01-07T18:49:58;3.0419;52.9503
43414;DHT22;73638;49.676;8.606;2024-01-07T18:55:05;3.0926;52.7657
43414;DHT22;73638;49.676;8.606;2024-01-07T19:00:12;2.9164;52.311
43414;DHT22;73638;49.676;8.606;2024-01-07T19:05:17;2.8977;52.5948
43414;DHT22;73638;49.676;8.606;2024-01-07T19:10:23;2.9511;53.3196
43414;DHT22;73638;49.676;8.606;2024-01-07T19:15:30;3.1407;53.257
43414;DHT22;73638;49.676;8.606;2024-01-07T19:20:37;3.3356;53.0983
43414;DHT22;73638;49.676;8.606;2024-01-07T19:25:44;3.098;52.6925
43414;DHT22;73638;49.676;8.606;2024-01-07T19:30:50;3.2795;52.9259
43414;DHT22;73638;49.676;8.606;2024-01-07T19:35:56;3.365;52.7413
43414;DHT22;73638;49.676;8.606;2024-01-07T19:41:03;3.0419;52.3735
43414;DHT22;73638;49.676;8.606;2024-01-07T19:46:09;3.3516;52.5948
43414;DHT22;73638;49.676;8.606;2024-01-07T19:51:18;3.3356;53.2082
43414;DHT22;73638;49.676;8.606;2024-01-07T19:56:23;3.2315;52.6314
43414;DHT22;73638;49.676;8.606;2024-01-07T20:01:29;3.3169;52.4346
43414;DHT22;73638;49.676;8.606;2024-01-07T20:06:37;3.2795;52.6558
43414;DHT22;73638;49.676;8.606;2024-01-07T20:11:42;3.4424;52.6192
43414;DHT22;73638;49.676;8.606;2024-01-07T20:16:49;3.4691;52.6802
43414;DHT22;73638;49.676;8.606;2024-01-07T20:21:55;3.3169;51.5984
43414;DHT22;73638;49.676;8.606;2024-01-07T20:27:02;3.2181;52.2377
43414;DHT22;73638;49.676;8.606;2024-01-07T20:32:08;3.2101;52.7169
43414;DHT22;73638;49.676;8.606;2024-01-07T20:37:14;3.3303;52.4712
43414;DHT22;73638;49.676;8.606;2024-01-07T20:42:39;3.0846;52.0653
43414;DHT22;73638;49.676;8.606;2024-01-07T20:47:27;3.3917;52.5444
43414;DHT22;73638;49.676;8.606;2024-01-07T20:52:33;3.3703;52.3232
43414;DHT22;73638;49.676;8.606;2024-01-07T20:57:40;3.0365;51.9066
43414;DHT22;73638;49.676;8.606;2024-01-07T21:02:46;3.2181;52.2377
43414;DHT22;73638;49.676;8.606;2024-01-07T21:07:53;3.4211;52.9137
43414;DHT22;73638;49.676;8.606;2024-01-07T21:13:00;3.5733;52.7901
43414;DHT22;73638;49.676;8.606;2024-01-07T21:18:06;3.5386;52.1401
43414;DHT22;73638;49.676;8.606;2024-01-07T21:23:13;3.4211;51.783
43414;DHT22;73638;49.676;8.606;2024-01-07T21:28:18;3.2876;51.7342
43414;DHT22;73638;49.676;8.606;2024-01-07T21:33:25;3.4131;52.2377
43414;DHT22;73638;49.676;8.606;2024-01-07T21:38:31;3.365;52.459
43414;DHT22;73638;49.676;8.606;2024-01-07T21:43:38;3.5466;52.5322
43414;DHT22;73638;49.676;8.606;2024-01-07T21:48:44;3.2101;52.0409
43414;DHT22;73638;49.676;8.606;2024-01-07T21:53:50;2.9591;52.2377
43414;DHT22;73638;49.676;8.606;2024-01-07T21:58:57;3.1754;52.7901
43414;DHT22;73638;49.676;8.606;2024-01-07T22:04:09;3.2795;52.5444
43414;DHT22;73638;49.676;8.606;2024-01-07T22:09:10;3.2101;52.5444
43414;DHT22;73638;49.676;8.606;2024-01-07T22:14:16;3.357;52.7047
43414;DHT22;73638;49.676;8.606;2024-01-07T22:19:23;3.4825;52.9747
43414;DHT22;73638;49.676;8.606;2024-01-07T22:24:30;3.6587;52.7779
43414;DHT22;73638;49.676;8.606;2024-01-07T22:29:36;3.867;52.0897
43414;DHT22;73638;49.676;8.606;2024-01-07T22:34:43;3.6934;52.1889
43414;DHT22;73638;49.676;8.606;2024-01-07T22:39:49;3.7762;52.3232
43414;DHT22;73638;49.676;8.606;2024-01-07T22:44:56;3.8403;52.4346
43414;DHT22;73638;49.676;8.606;2024-01-07T22:50:03;3.6507;51.6731
43414;DHT22;73638;49.676;8.606;2024-01-07T22:55:09;3.8457;52.1645
43414;DHT22;73638;49.676;8.606;2024-01-07T23:00:15;3.6988;51.7708
43414;DHT22;73638;49.676;8.606;2024-01-07T23:05:22;3.6427;52.0165
43414;DHT22;73638;49.676;8.606;2024-01-07T23:10:28;3.6641;51.9188
43414;DHT22;73638;49.676;8.606;2024-01-07T23:15:35;3.6641;52.2988
43414;DHT22;73638;49.676;8.606;2024-01-07T23:20:41;3.819;52.7169
43414;DHT22;73638;49.676;8.606;2024-01-07T23:25:48;3.7976;52.2133
43414;DHT22;73638;49.676;8.606;2024-01-07T23:30:56;3.9578;52.4346
43414;DHT22;73638;49.676;8.606;2024-01-07T23:36:03;3.8243;52.5948
43414;DHT22;73638;49.676;8.606;2024-01-07T23:41:13;3.9525;52.2988
43414;DHT22;73638;49.676;8.606;2024-01-07T23:46:14;3.7896;51.9554
43414;DHT22;73638;49.676;8.606;2024-01-07T23:51:20;3.9097;52.0287
43414;DHT22;73638;49.676;8.606;2024-01-07T23:56:27;3.8537;52.52
